createdAt,value
2018-12-15T00:00:56.179Z,9.53
2018-12-15T00:03:28.307Z,11.43
2018-12-15T00:06:00.785Z,9.57
2018-12-15T00:08:31.127Z,10.07
2018-12-15T00:11:01.285Z,11.90
2018-12-15T00:13:32.201Z,12.07
2018-12-15T00:16:03.370Z,11.27
2018-12-15T00:18:33.516Z,10.97
2018-12-15T00:21:03.515Z,10.33
2018-12-15T00:23:33.522Z,11.60
2018-12-15T00:26:04.047Z,10.90
2018-12-15T00:28:34.107Z,12.20
2018-12-15T00:31:04.772Z,10.90
2018-12-15T00:33:34.930Z,11.63
2018-12-15T00:36:05.435Z,11.20
2018-12-15T00:38:35.542Z,11.43
2018-12-15T00:41:05.934Z,11.10
2018-12-15T00:43:35.907Z,11.20
2018-12-15T00:46:06.035Z,11.43
2018-12-15T00:48:36.043Z,11.00
2018-12-15T00:51:06.192Z,11.57
2018-12-15T00:53:36.323Z,12.00
2018-12-15T00:56:06.574Z,11.30
2018-12-15T00:58:36.677Z,13.53
2018-12-15T01:01:06.746Z,12.73
2018-12-15T01:03:36.993Z,11.70
2018-12-15T01:06:07.123Z,13.20
2018-12-15T01:08:37.153Z,12.63
2018-12-15T01:11:07.226Z,13.07
2018-12-15T01:13:37.335Z,12.50
2018-12-15T01:16:07.767Z,13.47
2018-12-15T01:18:37.860Z,12.63
2018-12-15T01:21:08.247Z,12.60
2018-12-15T01:23:38.339Z,13.00
2018-12-15T01:26:08.392Z,11.60
2018-12-15T01:28:38.404Z,13.53
2018-12-15T01:31:08.655Z,13.10
2018-12-15T01:33:38.689Z,12.87
2018-12-15T01:36:08.717Z,13.07
2018-12-15T01:38:38.673Z,13.43
2018-12-15T01:41:08.772Z,12.80
2018-12-15T01:43:38.946Z,12.23
2018-12-15T01:46:08.865Z,14.07
2018-12-15T01:48:38.894Z,12.57
2018-12-15T01:51:10.009Z,12.03
2018-12-15T01:53:40.052Z,12.33
2018-12-15T01:56:10.158Z,12.90
2018-12-15T01:58:40.192Z,11.93
2018-12-15T02:01:10.173Z,13.37
2018-12-15T02:03:40.326Z,12.53
2018-12-15T02:06:10.507Z,12.40
2018-12-15T02:08:40.487Z,13.50
2018-12-15T02:11:12.625Z,13.40
2018-12-15T02:13:43.225Z,12.97
2018-12-15T02:16:13.329Z,12.47
2018-12-15T02:18:43.409Z,11.80
2018-12-15T02:21:13.288Z,12.47
2018-12-15T02:23:43.646Z,12.47
2018-12-15T02:26:13.838Z,12.20
2018-12-15T02:28:43.942Z,12.73
2018-12-15T02:31:14.073Z,13.23
2018-12-15T02:33:44.213Z,15.10
2018-12-15T02:36:14.273Z,12.60
2018-12-15T02:38:44.413Z,14.40
2018-12-15T02:41:15.077Z,13.13
2018-12-15T02:43:45.424Z,12.80
2018-12-15T02:46:15.453Z,11.67
2018-12-15T02:48:45.510Z,11.13
2018-12-15T02:51:15.626Z,12.80
2018-12-15T02:53:45.856Z,13.90
2018-12-15T02:56:15.794Z,12.37
2018-12-15T02:58:45.761Z,12.27
2018-12-15T03:01:15.820Z,12.30
2018-12-15T03:03:45.912Z,13.60
2018-12-15T03:06:15.949Z,13.13
2018-12-15T03:08:46.136Z,13.80
2018-12-15T03:11:16.389Z,13.80
2018-12-15T03:13:46.344Z,13.37
2018-12-15T03:16:16.404Z,12.73
2018-12-15T03:18:46.400Z,14.97
2018-12-15T03:21:16.798Z,13.80
2018-12-15T03:23:46.790Z,13.10
2018-12-15T03:26:16.882Z,13.97
2018-12-15T03:28:48.121Z,14.27
2018-12-15T03:31:18.986Z,14.90
2018-12-15T03:33:49.363Z,13.53
2018-12-15T03:36:19.403Z,14.40
2018-12-15T03:38:49.493Z,13.13
2018-12-15T03:41:19.748Z,13.40
2018-12-15T03:43:49.638Z,13.80
2018-12-15T03:46:19.752Z,13.57
2018-12-15T03:48:49.766Z,12.60
2018-12-15T03:51:19.654Z,13.43
2018-12-15T03:53:49.731Z,13.73
2018-12-15T03:56:19.970Z,12.37
2018-12-15T03:58:50.131Z,14.33
2018-12-15T04:01:20.211Z,12.93
2018-12-15T04:03:50.091Z,13.93
2018-12-15T04:06:20.174Z,13.83
2018-12-15T04:08:51.359Z,13.37
2018-12-15T04:11:21.431Z,14.00
2018-12-15T04:13:51.475Z,14.10
2018-12-15T04:16:21.374Z,14.17
2018-12-15T04:18:51.951Z,14.90
2018-12-15T04:21:22.000Z,13.97
2018-12-15T04:23:51.903Z,14.70
2018-12-15T04:26:22.063Z,13.33
2018-12-15T04:28:52.245Z,13.73
2018-12-15T04:31:22.105Z,15.00
2018-12-15T04:33:52.175Z,14.20
2018-12-15T04:36:22.140Z,14.90
2018-12-15T04:38:52.225Z,14.83
2018-12-15T04:41:22.481Z,14.33
2018-12-15T04:43:52.650Z,16.60
2018-12-15T04:46:23.062Z,14.50
2018-12-15T04:48:53.238Z,15.47
2018-12-15T04:51:23.159Z,14.10
2018-12-15T04:53:53.329Z,13.70
2018-12-15T04:56:24.631Z,13.73
2018-12-15T04:58:54.608Z,14.90
2018-12-15T05:01:24.647Z,14.30
2018-12-15T05:03:54.544Z,16.23
2018-12-15T05:06:24.485Z,15.10
2018-12-15T05:08:54.351Z,15.50
2018-12-15T05:11:24.518Z,14.70
2018-12-15T05:13:54.416Z,14.53
2018-12-15T05:16:24.636Z,13.77
2018-12-15T05:18:54.844Z,13.23
2018-12-15T05:21:25.612Z,13.47
2018-12-15T05:23:55.600Z,13.70
2018-12-15T05:26:25.501Z,13.23
2018-12-15T05:28:55.537Z,14.90
2018-12-15T05:31:25.565Z,13.37
2018-12-15T05:33:56.783Z,15.63
2018-12-15T05:36:26.983Z,14.80
2018-12-15T05:38:57.033Z,14.83
2018-12-15T05:41:27.257Z,14.20
2018-12-15T05:43:57.344Z,14.40
2018-12-15T05:46:27.883Z,15.03
2018-12-15T05:48:58.012Z,14.30
2018-12-15T05:51:27.999Z,14.47
2018-12-15T05:53:58.104Z,14.10
2018-12-15T05:56:28.064Z,13.43
2018-12-15T05:58:58.319Z,14.20
2018-12-15T06:01:28.233Z,13.87
2018-12-15T06:03:58.212Z,15.27
2018-12-15T06:06:28.254Z,15.63
2018-12-15T06:08:58.278Z,14.50
2018-12-15T06:11:28.268Z,21.80
2018-12-15T06:13:58.445Z,23.73
2018-12-15T06:16:28.534Z,22.13
2018-12-15T06:18:58.461Z,20.57
2018-12-15T06:21:28.504Z,34.67
2018-12-15T06:23:58.658Z,16.77
2018-12-15T06:26:28.585Z,18.73
2018-12-15T06:28:59.392Z,14.40
2018-12-15T06:31:30.664Z,16.67
2018-12-15T06:34:01.623Z,20.30
2018-12-15T06:36:31.720Z,22.93
2018-12-15T06:39:02.629Z,28.03
2018-12-15T06:41:34.858Z,21.20
2018-12-15T06:44:05.192Z,17.10
2018-12-15T06:46:35.270Z,15.93
2018-12-15T06:49:05.214Z,15.00
2018-12-15T06:51:35.390Z,15.87
2018-12-15T06:54:05.434Z,16.80
2018-12-15T06:56:35.626Z,14.90
2018-12-15T06:59:05.720Z,16.33
2018-12-15T07:01:35.999Z,17.43
2018-12-15T07:04:06.222Z,17.40
2018-12-15T07:06:36.633Z,16.43
2018-12-15T07:09:07.505Z,19.97
2018-12-15T07:11:38.534Z,25.80
2018-12-15T07:14:08.641Z,18.10
2018-12-15T07:16:38.861Z,17.73
2018-12-15T07:19:08.886Z,16.80
2018-12-15T07:21:39.018Z,15.20
2018-12-15T07:24:08.957Z,16.50
2018-12-15T07:26:38.869Z,13.57
2018-12-15T07:29:08.958Z,14.40
2018-12-15T07:31:39.186Z,15.00
2018-12-15T07:34:09.133Z,17.17
2018-12-15T07:36:39.487Z,17.03
2018-12-15T07:39:09.663Z,17.17
2018-12-15T07:41:40.555Z,16.10
2018-12-15T07:44:10.636Z,16.20
2018-12-15T07:46:40.690Z,18.00
2018-12-15T07:49:10.801Z,15.57
2018-12-15T07:51:40.786Z,14.83
2018-12-15T07:54:10.745Z,15.37
2018-12-15T07:56:40.970Z,16.03
2018-12-15T07:59:11.116Z,15.10
2018-12-15T08:01:41.797Z,15.23
2018-12-15T08:04:12.560Z,15.10
2018-12-15T08:06:42.724Z,20.10
2018-12-15T08:09:12.955Z,18.50
2018-12-15T08:11:47.943Z,17.33
2018-12-15T08:14:18.490Z,15.13
2018-12-15T08:16:48.717Z,15.00
2018-12-15T08:19:18.734Z,14.23
2018-12-15T08:59:36.734Z,15.20
2018-12-15T09:02:06.656Z,16.10
2018-12-15T09:04:36.574Z,14.53
2018-12-15T09:07:06.359Z,16.63
2018-12-15T09:09:36.278Z,15.10
2018-12-15T09:12:06.112Z,15.33
2018-12-15T09:14:36.151Z,14.40
2018-12-15T09:17:06.103Z,15.97
2018-12-15T09:19:36.110Z,15.30
2018-12-15T09:22:11.503Z,16.47
2018-12-15T09:24:38.156Z,15.23
2018-12-15T09:27:08.226Z,13.80
2018-12-15T09:29:38.264Z,13.83
2018-12-15T09:32:08.364Z,15.17
2018-12-15T09:34:38.441Z,14.57
2018-12-15T09:37:08.903Z,14.90
2018-12-15T09:39:39.527Z,15.07
2018-12-15T09:42:09.614Z,15.47
2018-12-15T09:44:39.778Z,14.80
2018-12-15T09:47:10.013Z,14.10
2018-12-15T09:49:40.242Z,14.60
2018-12-15T09:52:10.308Z,15.07
2018-12-15T09:54:40.478Z,15.60
2018-12-15T09:57:11.307Z,16.60
2018-12-15T09:59:41.728Z,17.23
2018-12-15T10:02:12.075Z,15.50
2018-12-15T10:04:43.207Z,16.30
2018-12-15T10:07:13.515Z,17.80
2018-12-15T10:09:43.722Z,16.67
2018-12-15T10:12:13.899Z,17.27
2018-12-15T10:14:44.512Z,16.60
2018-12-15T10:17:14.533Z,16.27
2018-12-15T10:19:44.547Z,15.80
2018-12-15T10:22:15.798Z,14.67
2018-12-15T10:24:45.749Z,16.40
2018-12-15T10:27:17.244Z,15.50
2018-12-15T10:31:58.301Z,16.00
2018-12-15T10:34:28.647Z,16.33
2018-12-15T10:36:59.249Z,15.87
2018-12-15T10:39:30.601Z,16.33
2018-12-15T10:42:01.704Z,17.10
2018-12-15T10:44:32.686Z,16.30
2018-12-15T10:47:02.938Z,15.40
2018-12-15T10:49:35.018Z,16.10
2018-12-15T10:52:05.237Z,16.47
2018-12-15T10:54:35.653Z,17.57
2018-12-15T10:57:05.990Z,16.50
2018-12-15T10:59:36.263Z,15.43
2018-12-15T11:02:06.590Z,16.53
2018-12-15T11:04:36.757Z,17.90
2018-12-15T11:07:07.066Z,16.90
2018-12-15T11:09:37.569Z,18.00
2018-12-15T11:12:07.998Z,15.57
2018-12-15T11:14:39.164Z,16.07
2018-12-15T11:17:09.759Z,16.33
2018-12-15T11:19:39.962Z,17.23
2018-12-15T11:22:09.973Z,16.70
2018-12-15T11:24:40.041Z,16.20
2018-12-15T11:27:10.416Z,17.13
2018-12-15T11:29:41.001Z,17.13
2018-12-15T11:32:11.126Z,16.40
2018-12-15T11:34:42.315Z,32.97
2018-12-15T11:37:12.417Z,16.20
2018-12-15T11:39:43.226Z,17.60
2018-12-15T11:42:13.410Z,17.37
2018-12-15T11:44:43.249Z,17.03
2018-12-15T11:47:14.025Z,15.20
2018-12-15T11:49:45.216Z,18.27
2018-12-15T11:52:15.319Z,16.60
2018-12-15T11:54:45.455Z,15.87
2018-12-15T11:57:15.743Z,16.60
2018-12-15T11:59:46.186Z,16.40
2018-12-15T12:02:16.266Z,16.37
2018-12-15T12:04:46.390Z,16.20
2018-12-15T12:07:17.675Z,16.17
2018-12-15T12:09:47.872Z,17.90
2018-12-15T12:12:18.289Z,17.80
2018-12-15T12:14:48.813Z,16.50
2018-12-15T12:17:18.958Z,15.93
2018-12-15T12:19:50.245Z,15.67
2018-12-15T12:22:21.148Z,17.20
2018-12-15T12:24:51.284Z,14.57
2018-12-15T12:27:23.433Z,15.83
2018-12-15T12:29:53.920Z,15.60
2018-12-15T12:32:25.037Z,15.47
2018-12-15T12:34:55.769Z,16.17
2018-12-15T12:37:26.266Z,14.90
2018-12-15T12:39:57.478Z,16.43
2018-12-15T12:42:27.675Z,21.43
2018-12-15T12:44:57.753Z,23.27
2018-12-15T12:47:27.959Z,17.33
2018-12-15T12:49:57.955Z,15.87
2018-12-15T12:52:28.243Z,15.67
2018-12-15T12:54:59.154Z,16.60
2018-12-15T12:57:29.226Z,14.87
2018-12-15T12:59:59.385Z,14.80
2018-12-15T13:02:29.457Z,17.50
2018-12-15T13:04:59.744Z,16.80
2018-12-15T13:07:29.761Z,16.93
2018-12-15T13:09:59.886Z,14.07
2018-12-15T13:12:29.980Z,14.90
2018-12-15T13:15:00.090Z,15.37
2018-12-15T13:17:30.383Z,15.47
2018-12-15T13:20:03.579Z,16.00
2018-12-15T13:22:32.522Z,18.27
2018-12-15T13:25:02.925Z,18.53
2018-12-15T13:27:33.505Z,18.90
2018-12-15T13:30:04.365Z,18.07
2018-12-15T13:32:34.730Z,17.97
2018-12-15T13:35:05.378Z,20.00
2018-12-15T13:37:35.798Z,19.50
2018-12-15T13:40:06.093Z,16.63
2018-12-15T13:42:36.301Z,17.90
2018-12-15T13:45:06.792Z,16.70
2018-12-15T13:47:36.843Z,17.90
2018-12-15T13:50:10.336Z,16.80
2018-12-15T13:52:40.753Z,18.90
2018-12-15T13:55:11.334Z,18.57
2018-12-15T13:57:41.589Z,17.83
2018-12-15T14:00:11.692Z,17.57
2018-12-15T14:02:41.802Z,18.87
2018-12-15T14:05:11.989Z,16.87
2018-12-15T14:07:42.085Z,17.00
2018-12-15T14:10:12.431Z,17.07
2018-12-15T14:12:42.443Z,17.87
2018-12-15T14:15:12.698Z,17.30
2018-12-15T14:17:42.936Z,18.27
2018-12-15T14:20:16.680Z,18.07
2018-12-15T14:22:44.973Z,17.37
2018-12-15T14:25:15.193Z,18.80
2018-12-15T14:27:45.276Z,17.37
2018-12-15T14:30:15.529Z,17.50
2018-12-15T14:32:45.734Z,17.20
2018-12-15T14:35:15.725Z,17.57
2018-12-15T14:37:45.798Z,17.43
2018-12-15T14:40:15.994Z,16.10
2018-12-15T14:42:46.255Z,15.93
2018-12-15T14:45:16.318Z,15.57
2018-12-15T14:47:46.351Z,17.17
2018-12-15T14:50:16.424Z,15.40
2018-12-15T14:52:46.425Z,15.43
2018-12-15T14:55:17.044Z,17.60
2018-12-15T14:57:47.099Z,15.33
2018-12-15T15:00:17.082Z,17.13
2018-12-15T15:02:48.057Z,14.90
2018-12-15T15:05:18.115Z,16.77
2018-12-15T15:07:49.385Z,16.30
2018-12-15T15:10:19.385Z,14.53
2018-12-15T15:12:50.043Z,15.37
2018-12-15T15:15:20.255Z,15.43
2018-12-15T15:17:50.627Z,16.47
2018-12-15T15:20:21.382Z,15.60
2018-12-15T15:22:51.526Z,15.43
2018-12-15T15:25:22.187Z,15.83
2018-12-15T15:27:52.286Z,15.87
2018-12-15T15:30:22.564Z,17.37
2018-12-15T15:32:52.934Z,21.37
2018-12-15T15:35:23.332Z,18.83
2018-12-15T15:37:53.861Z,19.00
2018-12-15T15:40:24.071Z,19.20
2018-12-15T15:42:54.206Z,19.03
2018-12-15T15:45:24.326Z,19.00
2018-12-15T15:47:54.395Z,18.00
2018-12-15T15:50:24.671Z,18.27
2018-12-15T15:52:54.764Z,20.90
2018-12-15T15:55:25.001Z,20.80
2018-12-15T15:57:55.129Z,20.77
2018-12-15T16:00:25.442Z,21.63
2018-12-15T16:02:56.420Z,32.07
2018-12-15T16:05:26.663Z,24.97
2018-12-15T16:07:57.926Z,24.33
2018-12-15T16:10:27.951Z,23.93
2018-12-15T16:12:58.040Z,24.10
2018-12-15T16:15:28.092Z,22.90
2018-12-15T16:17:58.124Z,21.33
2018-12-15T16:20:28.220Z,20.47
2018-12-15T16:22:58.256Z,17.97
2018-12-15T16:25:28.383Z,17.50
2018-12-15T16:27:58.214Z,27.53
2018-12-15T16:30:28.399Z,22.70
2018-12-15T16:32:58.501Z,18.80
2018-12-15T16:35:28.549Z,17.00
2018-12-15T16:37:58.569Z,15.97
2018-12-15T16:40:28.785Z,15.90
2018-12-15T16:42:58.959Z,15.70
2018-12-15T16:45:29.267Z,16.30
2018-12-15T16:47:59.422Z,17.80
2018-12-15T16:50:29.524Z,16.53
2018-12-15T16:52:59.414Z,17.70
2018-12-15T16:55:29.340Z,16.17
2018-12-15T16:57:59.447Z,18.13
2018-12-15T17:00:29.538Z,18.20
2018-12-15T17:03:03.450Z,17.67
2018-12-15T17:05:33.634Z,15.33
2018-12-15T17:08:04.291Z,13.97
2018-12-15T17:10:34.497Z,14.50
2018-12-15T17:13:05.236Z,13.50
2018-12-15T17:15:35.442Z,14.27
2018-12-15T17:18:06.331Z,13.63
2018-12-15T17:20:36.543Z,12.40
2018-12-15T17:23:07.407Z,13.00
2018-12-15T17:25:38.770Z,12.27
2018-12-15T17:28:09.267Z,12.97
2018-12-15T17:30:39.377Z,11.50
2018-12-15T17:33:10.484Z,10.60
2018-12-15T17:35:41.782Z,11.67
2018-12-15T17:38:12.320Z,12.27
2018-12-15T17:40:43.704Z,13.07
2018-12-15T17:43:14.079Z,15.17
2018-12-15T17:45:44.798Z,14.63
2018-12-15T17:48:14.922Z,13.93
2018-12-15T17:50:46.270Z,14.30
2018-12-15T17:53:16.330Z,14.43
2018-12-15T17:55:46.845Z,13.70
2018-12-15T17:58:16.757Z,14.30
2018-12-15T18:00:47.038Z,14.43
2018-12-15T18:03:17.905Z,14.40
2018-12-15T18:05:48.010Z,15.13
2018-12-15T18:08:17.887Z,14.13
2018-12-15T18:10:48.142Z,15.13
2018-12-15T18:13:18.432Z,15.13
2018-12-15T18:15:49.262Z,14.13
2018-12-15T18:18:19.645Z,14.30
2018-12-15T18:20:50.665Z,13.77
2018-12-15T18:23:21.053Z,14.17
2018-12-15T18:25:51.140Z,14.27
2018-12-15T18:28:22.757Z,15.43
2018-12-15T18:30:53.303Z,14.17
2018-12-15T18:33:23.739Z,14.27
2018-12-15T18:35:54.761Z,13.80
2018-12-15T18:38:25.198Z,15.50
2018-12-15T18:40:55.513Z,13.20
2018-12-15T18:43:25.841Z,13.67
2018-12-15T18:45:56.415Z,14.27
2018-12-15T18:48:26.403Z,14.70
2018-12-15T18:50:56.541Z,13.53
2018-12-15T18:53:26.972Z,13.90
2018-12-15T18:55:57.997Z,15.37
2018-12-15T18:58:28.364Z,13.37
2018-12-15T19:00:58.538Z,12.77
2018-12-15T19:03:28.597Z,13.23
2018-12-15T19:05:58.594Z,12.47
2018-12-15T19:08:28.641Z,13.03
2018-12-15T19:10:58.610Z,13.70
2018-12-15T19:13:29.011Z,12.93
2018-12-15T19:16:00.007Z,12.90
2018-12-15T19:18:30.260Z,12.17
2018-12-15T19:21:00.362Z,14.00
2018-12-15T19:23:31.134Z,11.60
2018-12-15T19:26:01.937Z,13.30
2018-12-15T19:28:32.915Z,12.70
2018-12-15T19:31:03.120Z,12.83
2018-12-15T19:33:33.422Z,13.37
2018-12-15T19:36:04.136Z,12.90
2018-12-15T19:38:34.257Z,13.30
2018-12-15T19:41:05.485Z,14.60
2018-12-15T19:43:35.471Z,14.10
2018-12-15T19:46:05.774Z,14.63
2018-12-15T19:48:35.960Z,14.77
2018-12-15T19:51:06.412Z,13.10
2018-12-15T19:53:36.504Z,12.83
2018-12-15T19:56:06.770Z,13.93
2018-12-15T19:58:37.799Z,12.60
2018-12-15T20:01:07.984Z,14.70
2018-12-15T20:03:37.968Z,12.50
2018-12-15T20:06:08.266Z,11.67
2018-12-15T20:08:38.369Z,13.30
2018-12-15T20:11:08.691Z,12.17
2018-12-15T20:13:38.926Z,12.60
2018-12-15T20:16:09.369Z,14.47
2018-12-15T20:18:39.405Z,16.13
2018-12-15T20:21:09.520Z,14.00
2018-12-15T20:23:39.515Z,13.20
2018-12-15T20:26:09.603Z,12.00
2018-12-15T20:28:39.987Z,12.30
2018-12-15T20:31:10.173Z,12.80
2018-12-15T20:33:40.234Z,13.07
2018-12-15T20:36:10.492Z,11.17
2018-12-15T20:38:40.783Z,12.43
2018-12-15T20:41:10.859Z,11.67
2018-12-15T20:43:41.306Z,13.43
2018-12-15T20:46:11.513Z,12.67
2018-12-15T20:48:41.759Z,15.83
2018-12-15T20:51:11.979Z,16.13
2018-12-15T20:53:42.021Z,12.63
2018-12-15T20:56:12.051Z,13.90
2018-12-15T20:58:43.312Z,13.30
2018-12-15T21:01:13.403Z,13.70
2018-12-15T21:03:43.579Z,15.30
2018-12-15T21:06:13.891Z,18.70
2018-12-15T21:08:43.997Z,22.70
2018-12-15T21:11:14.031Z,18.80
2018-12-15T21:13:44.058Z,19.40
2018-12-15T21:16:14.052Z,20.00
2018-12-15T21:18:44.057Z,19.37
2018-12-15T21:21:14.266Z,14.07
2018-12-15T21:23:44.134Z,11.87
2018-12-15T21:26:14.457Z,13.23
2018-12-15T21:28:44.822Z,13.40
2018-12-15T21:31:15.293Z,13.50
2018-12-15T21:33:45.961Z,15.63
2018-12-15T21:36:16.333Z,15.23
2018-12-15T21:38:47.137Z,13.53
2018-12-15T21:41:17.372Z,13.13
2018-12-15T21:43:47.466Z,15.40
2018-12-15T21:46:17.483Z,12.40
2018-12-15T21:48:47.875Z,13.07
2018-12-15T21:51:17.841Z,13.07
2018-12-15T21:53:48.039Z,14.57
2018-12-15T21:56:18.141Z,13.40
2018-12-15T21:58:48.468Z,16.70
2018-12-15T22:01:18.675Z,13.03
2018-12-15T22:03:49.328Z,12.90
2018-12-15T22:06:19.791Z,11.53
2018-12-15T22:08:50.021Z,12.43
2018-12-15T22:11:20.000Z,11.23
2018-12-15T22:13:50.395Z,12.07
2018-12-15T22:16:20.757Z,11.83
2018-12-15T22:18:50.926Z,11.57
2018-12-15T22:21:21.060Z,10.20
2018-12-15T22:23:51.222Z,10.30
2018-12-15T22:26:21.549Z,11.07
2018-12-15T22:28:51.908Z,10.33
2018-12-15T22:31:22.347Z,10.60
2018-12-15T22:33:52.502Z,10.50
2018-12-15T22:36:22.563Z,11.07
2018-12-15T22:38:53.011Z,10.90
2018-12-15T22:41:23.095Z,11.30
2018-12-15T22:43:53.175Z,10.03
2018-12-15T22:46:23.198Z,11.10
2018-12-15T22:48:53.520Z,10.20
2018-12-15T22:51:24.467Z,9.43
2018-12-15T22:53:54.628Z,10.93
2018-12-15T22:56:24.949Z,9.43
2018-12-15T22:58:55.153Z,10.53
2018-12-15T23:01:25.477Z,10.80
2018-12-15T23:03:56.278Z,10.30
2018-12-15T23:06:26.323Z,11.47
2018-12-15T23:08:56.614Z,11.07
2018-12-15T23:11:26.720Z,9.60
2018-12-15T23:13:56.830Z,9.60
2018-12-15T23:16:26.815Z,11.20
2018-12-15T23:18:56.875Z,9.17
2018-12-15T23:21:26.768Z,9.77
2018-12-15T23:23:56.769Z,8.70
2018-12-15T23:26:27.197Z,9.13
2018-12-15T23:28:57.487Z,9.37
2018-12-15T23:31:27.676Z,10.40
2018-12-15T23:33:57.903Z,10.50
2018-12-15T23:36:27.931Z,11.70
2018-12-15T23:38:58.297Z,9.30
2018-12-15T23:41:28.475Z,11.33
2018-12-15T23:43:58.625Z,10.03
2018-12-15T23:46:28.560Z,10.73
2018-12-15T23:48:58.599Z,11.20
2018-12-15T23:51:28.586Z,11.17
2018-12-15T23:53:58.534Z,10.43
2018-12-15T23:56:28.644Z,11.47
2018-12-15T23:58:58.672Z,13.47
